sensor_id;sensor_type;location;lat;lon;timestamp;P1;durP1;ratioP1;P2;durP2;ratioP2
39728;SDS011;25402;42.004;23.088;2022-12-29T00:01:19;100.65;;;48.63;;
39728;SDS011;25402;42.004;23.088;2022-12-29T00:03:46;103.50;;;48.80;;
39728;SDS011;25402;42.004;23.088;2022-12-29T00:06:12;101.72;;;49.80;;
39728;SDS011;25402;42.004;23.088;2022-12-29T00:08:39;97.35;;;47.33;;
39728;SDS011;25402;42.004;23.088;2022-12-29T00:11:07;110.63;;;51.08;;
39728;SDS011;25402;42.004;23.088;2022-12-29T00:13:34;105.35;;;51.45;;
39728;SDS011;25402;42.004;23.088;2022-12-29T00:16:18;106.82;;;50.83;;
39728;SDS011;25402;42.004;23.088;2022-12-29T00:18:44;100.50;;;48.38;;
39728;SDS011;25402;42.004;23.088;2022-12-29T00:21:13;103.82;;;49.47;;
39728;SDS011;25402;42.004;23.088;2022-12-29T00:23:57;106.90;;;50.10;;
39728;SDS011;25402;42.004;23.088;2022-12-29T00:29:26;97.75;;;45.35;;
39728;SDS011;25402;42.004;23.088;2022-12-29T00:32:10;95.93;;;45.22;;
39728;SDS011;25402;42.004;23.088;2022-12-29T00:34:54;96.18;;;45.88;;
39728;SDS011;25402;42.004;23.088;2022-12-29T00:37:36;88.47;;;42.78;;
39728;SDS011;25402;42.004;23.088;2022-12-29T00:40:21;91.53;;;41.55;;
39728;SDS011;25402;42.004;23.088;2022-12-29T00:43:05;85.70;;;41.40;;
39728;SDS011;25402;42.004;23.088;2022-12-29T00:48:17;89.70;;;41.00;;
39728;SDS011;25402;42.004;23.088;2022-12-29T00:51:04;86.60;;;41.55;;
39728;SDS011;25402;42.004;23.088;2022-12-29T00:53:29;88.15;;;40.85;;
39728;SDS011;25402;42.004;23.088;2022-12-29T00:55:56;85.10;;;40.63;;
39728;SDS011;25402;42.004;23.088;2022-12-29T00:58:22;82.40;;;41.80;;
39728;SDS011;25402;42.004;23.088;2022-12-29T01:00:49;91.65;;;42.50;;
39728;SDS011;25402;42.004;23.088;2022-12-29T01:03:17;87.93;;;45.00;;
39728;SDS011;25402;42.004;23.088;2022-12-29T01:05:43;89.13;;;43.30;;
39728;SDS011;25402;42.004;23.088;2022-12-29T01:08:10;87.25;;;44.53;;
39728;SDS011;25402;42.004;23.088;2022-12-29T01:10:36;91.53;;;43.28;;
39728;SDS011;25402;42.004;23.088;2022-12-29T01:13:02;95.70;;;44.13;;
39728;SDS011;25402;42.004;23.088;2022-12-29T01:15:29;96.72;;;41.97;;
39728;SDS011;25402;42.004;23.088;2022-12-29T01:17:56;83.90;;;42.58;;
39728;SDS011;25402;42.004;23.088;2022-12-29T01:20:24;100.57;;;41.78;;
39728;SDS011;25402;42.004;23.088;2022-12-29T01:22:52;85.68;;;42.17;;
39728;SDS011;25402;42.004;23.088;2022-12-29T01:25:19;93.03;;;43.33;;
39728;SDS011;25402;42.004;23.088;2022-12-29T01:27:45;94.78;;;42.83;;
39728;SDS011;25402;42.004;23.088;2022-12-29T01:30:12;87.88;;;42.65;;
39728;SDS011;25402;42.004;23.088;2022-12-29T01:32:39;84.50;;;40.75;;
39728;SDS011;25402;42.004;23.088;2022-12-29T01:35:05;89.25;;;42.22;;
39728;SDS011;25402;42.004;23.088;2022-12-29T01:37:33;94.32;;;43.30;;
39728;SDS011;25402;42.004;23.088;2022-12-29T01:40:00;91.85;;;42.85;;
39728;SDS011;25402;42.004;23.088;2022-12-29T01:42:27;87.00;;;42.28;;
39728;SDS011;25402;42.004;23.088;2022-12-29T01:44:54;91.00;;;42.67;;
39728;SDS011;25402;42.004;23.088;2022-12-29T01:47:31;89.95;;;42.90;;
39728;SDS011;25402;42.004;23.088;2022-12-29T01:50:01;89.47;;;41.67;;
39728;SDS011;25402;42.004;23.088;2022-12-29T01:52:29;79.88;;;41.50;;
39728;SDS011;25402;42.004;23.088;2022-12-29T01:54:59;83.55;;;38.70;;
39728;SDS011;25402;42.004;23.088;2022-12-29T01:57:27;81.25;;;39.83;;
39728;SDS011;25402;42.004;23.088;2022-12-29T01:59:55;86.35;;;40.08;;
39728;SDS011;25402;42.004;23.088;2022-12-29T02:02:23;79.82;;;39.55;;
39728;SDS011;25402;42.004;23.088;2022-12-29T02:04:50;83.18;;;38.22;;
39728;SDS011;25402;42.004;23.088;2022-12-29T02:07:19;80.03;;;38.95;;
39728;SDS011;25402;42.004;23.088;2022-12-29T02:09:46;78.15;;;38.47;;
39728;SDS011;25402;42.004;23.088;2022-12-29T02:12:14;82.93;;;39.03;;
39728;SDS011;25402;42.004;23.088;2022-12-29T02:14:41;80.63;;;39.30;;
39728;SDS011;25402;42.004;23.088;2022-12-29T02:17:08;82.90;;;39.70;;
39728;SDS011;25402;42.004;23.088;2022-12-29T02:22:24;88.13;;;41.42;;
39728;SDS011;25402;42.004;23.088;2022-12-29T02:27:45;85.00;;;39.35;;
39728;SDS011;25402;42.004;23.088;2022-12-29T02:30:16;94.10;;;40.33;;
39728;SDS011;25402;42.004;23.088;2022-12-29T02:32:51;87.35;;;40.47;;
39728;SDS011;25402;42.004;23.088;2022-12-29T02:35:22;82.38;;;41.38;;
39728;SDS011;25402;42.004;23.088;2022-12-29T02:37:51;82.70;;;40.50;;
39728;SDS011;25402;42.004;23.088;2022-12-29T02:40:23;86.90;;;39.88;;
39728;SDS011;25402;42.004;23.088;2022-12-29T02:42:51;81.80;;;40.85;;
39728;SDS011;25402;42.004;23.088;2022-12-29T02:45:19;86.38;;;41.03;;
39728;SDS011;25402;42.004;23.088;2022-12-29T02:47:47;83.85;;;39.95;;
39728;SDS011;25402;42.004;23.088;2022-12-29T02:50:18;83.25;;;39.85;;
39728;SDS011;25402;42.004;23.088;2022-12-29T02:52:48;89.90;;;41.13;;
39728;SDS011;25402;42.004;23.088;2022-12-29T02:55:15;78.43;;;39.40;;
39728;SDS011;25402;42.004;23.088;2022-12-29T02:57:41;86.10;;;42.00;;
39728;SDS011;25402;42.004;23.088;2022-12-29T03:00:09;83.93;;;40.70;;
39728;SDS011;25402;42.004;23.088;2022-12-29T03:02:44;84.88;;;42.20;;
39728;SDS011;25402;42.004;23.088;2022-12-29T03:05:21;91.38;;;41.83;;
39728;SDS011;25402;42.004;23.088;2022-12-29T03:07:50;79.72;;;39.45;;
39728;SDS011;25402;42.004;23.088;2022-12-29T03:10:25;77.97;;;37.92;;
39728;SDS011;25402;42.004;23.088;2022-12-29T03:12:56;70.88;;;35.00;;
39728;SDS011;25402;42.004;23.088;2022-12-29T03:15:43;76.97;;;37.25;;
39728;SDS011;25402;42.004;23.088;2022-12-29T03:18:34;68.05;;;35.95;;
39728;SDS011;25402;42.004;23.088;2022-12-29T03:21:06;82.32;;;38.92;;
39728;SDS011;25402;42.004;23.088;2022-12-29T03:23:34;77.47;;;36.58;;
39728;SDS011;25402;42.004;23.088;2022-12-29T03:26:02;75.07;;;38.63;;
39728;SDS011;25402;42.004;23.088;2022-12-29T03:28:31;75.95;;;36.85;;
39728;SDS011;25402;42.004;23.088;2022-12-29T03:31:00;81.85;;;38.03;;
39728;SDS011;25402;42.004;23.088;2022-12-29T03:33:29;73.45;;;36.78;;
39728;SDS011;25402;42.004;23.088;2022-12-29T03:35:57;78.60;;;36.95;;
39728;SDS011;25402;42.004;23.088;2022-12-29T03:38:27;76.03;;;36.78;;
39728;SDS011;25402;42.004;23.088;2022-12-29T03:40:56;82.38;;;38.25;;
39728;SDS011;25402;42.004;23.088;2022-12-29T03:43:24;80.15;;;37.55;;
39728;SDS011;25402;42.004;23.088;2022-12-29T03:45:52;77.45;;;37.83;;
39728;SDS011;25402;42.004;23.088;2022-12-29T03:48:18;80.65;;;37.95;;
39728;SDS011;25402;42.004;23.088;2022-12-29T03:50:45;82.57;;;40.30;;
39728;SDS011;25402;42.004;23.088;2022-12-29T03:53:11;87.57;;;41.53;;
39728;SDS011;25402;42.004;23.088;2022-12-29T03:55:39;96.95;;;44.30;;
39728;SDS011;25402;42.004;23.088;2022-12-29T03:58:06;102.15;;;51.30;;
39728;SDS011;25402;42.004;23.088;2022-12-29T04:00:32;87.50;;;41.05;;
39728;SDS011;25402;42.004;23.088;2022-12-29T04:02:59;78.10;;;38.30;;
39728;SDS011;25402;42.004;23.088;2022-12-29T04:05:25;84.25;;;40.22;;
39728;SDS011;25402;42.004;23.088;2022-12-29T04:07:52;87.40;;;41.22;;
39728;SDS011;25402;42.004;23.088;2022-12-29T04:10:19;74.82;;;38.08;;
39728;SDS011;25402;42.004;23.088;2022-12-29T04:12:47;74.57;;;37.00;;
39728;SDS011;25402;42.004;23.088;2022-12-29T04:15:13;80.93;;;35.67;;
39728;SDS011;25402;42.004;23.088;2022-12-29T04:17:40;75.45;;;35.17;;
39728;SDS011;25402;42.004;23.088;2022-12-29T04:20:07;75.78;;;36.35;;
39728;SDS011;25402;42.004;23.088;2022-12-29T04:22:47;79.90;;;36.08;;
39728;SDS011;25402;42.004;23.088;2022-12-29T04:25:15;85.97;;;35.72;;
39728;SDS011;25402;42.004;23.088;2022-12-29T04:27:42;68.70;;;33.97;;
39728;SDS011;25402;42.004;23.088;2022-12-29T04:30:10;86.15;;;38.83;;
39728;SDS011;25402;42.004;23.088;2022-12-29T04:32:37;72.55;;;36.95;;
39728;SDS011;25402;42.004;23.088;2022-12-29T04:35:04;84.68;;;38.00;;
39728;SDS011;25402;42.004;23.088;2022-12-29T04:37:31;82.65;;;37.40;;
39728;SDS011;25402;42.004;23.088;2022-12-29T04:39:57;75.10;;;37.70;;
39728;SDS011;25402;42.004;23.088;2022-12-29T04:42:24;80.13;;;39.00;;
39728;SDS011;25402;42.004;23.088;2022-12-29T04:44:50;82.25;;;36.60;;
39728;SDS011;25402;42.004;23.088;2022-12-29T04:47:18;75.95;;;37.22;;
39728;SDS011;25402;42.004;23.088;2022-12-29T04:49:45;79.63;;;37.50;;
39728;SDS011;25402;42.004;23.088;2022-12-29T04:52:11;76.70;;;35.65;;
39728;SDS011;25402;42.004;23.088;2022-12-29T04:54:38;70.68;;;36.13;;
39728;SDS011;25402;42.004;23.088;2022-12-29T04:57:04;69.85;;;35.60;;
39728;SDS011;25402;42.004;23.088;2022-12-29T04:59:31;70.32;;;35.45;;
39728;SDS011;25402;42.004;23.088;2022-12-29T05:01:57;85.82;;;37.88;;
39728;SDS011;25402;42.004;23.088;2022-12-29T05:04:26;77.85;;;36.28;;
39728;SDS011;25402;42.004;23.088;2022-12-29T05:06:52;80.07;;;36.53;;
39728;SDS011;25402;42.004;23.088;2022-12-29T05:09:19;87.75;;;37.20;;
39728;SDS011;25402;42.004;23.088;2022-12-29T05:11:45;78.55;;;37.63;;
39728;SDS011;25402;42.004;23.088;2022-12-29T05:14:12;98.40;;;39.55;;
39728;SDS011;25402;42.004;23.088;2022-12-29T05:16:38;77.95;;;38.45;;
39728;SDS011;25402;42.004;23.088;2022-12-29T05:19:05;77.72;;;38.03;;
39728;SDS011;25402;42.004;23.088;2022-12-29T05:21:33;79.60;;;38.75;;
39728;SDS011;25402;42.004;23.088;2022-12-29T05:23:59;78.75;;;37.70;;
39728;SDS011;25402;42.004;23.088;2022-12-29T05:26:26;78.60;;;37.53;;
39728;SDS011;25402;42.004;23.088;2022-12-29T05:28:53;80.72;;;38.03;;
39728;SDS011;25402;42.004;23.088;2022-12-29T05:31:19;79.72;;;37.53;;
39728;SDS011;25402;42.004;23.088;2022-12-29T05:33:46;77.15;;;37.80;;
39728;SDS011;25402;42.004;23.088;2022-12-29T05:36:12;84.78;;;38.28;;
39728;SDS011;25402;42.004;23.088;2022-12-29T05:38:40;85.10;;;39.58;;
39728;SDS011;25402;42.004;23.088;2022-12-29T05:41:07;74.10;;;37.35;;
39728;SDS011;25402;42.004;23.088;2022-12-29T05:43:33;78.75;;;38.33;;
39728;SDS011;25402;42.004;23.088;2022-12-29T05:46:00;82.00;;;39.03;;
39728;SDS011;25402;42.004;23.088;2022-12-29T05:48:27;78.05;;;38.60;;
39728;SDS011;25402;42.004;23.088;2022-12-29T05:50:53;82.80;;;38.70;;
39728;SDS011;25402;42.004;23.088;2022-12-29T05:53:20;82.25;;;38.00;;
39728;SDS011;25402;42.004;23.088;2022-12-29T05:55:48;79.60;;;38.33;;
39728;SDS011;25402;42.004;23.088;2022-12-29T05:58:16;82.57;;;38.72;;
39728;SDS011;25402;42.004;23.088;2022-12-29T06:00:42;78.47;;;38.03;;
39728;SDS011;25402;42.004;23.088;2022-12-29T06:03:09;79.97;;;37.63;;
39728;SDS011;25402;42.004;23.088;2022-12-29T06:05:36;74.25;;;36.55;;
39728;SDS011;25402;42.004;23.088;2022-12-29T06:08:03;82.90;;;38.33;;
39728;SDS011;25402;42.004;23.088;2022-12-29T06:10:29;75.00;;;38.63;;
39728;SDS011;25402;42.004;23.088;2022-12-29T06:12:57;71.55;;;36.45;;
39728;SDS011;25402;42.004;23.088;2022-12-29T06:15:24;81.80;;;37.97;;
39728;SDS011;25402;42.004;23.088;2022-12-29T06:17:50;86.68;;;40.15;;
39728;SDS011;25402;42.004;23.088;2022-12-29T06:20:17;87.80;;;41.58;;
39728;SDS011;25402;42.004;23.088;2022-12-29T06:22:43;92.88;;;43.53;;
39728;SDS011;25402;42.004;23.088;2022-12-29T06:25:11;107.30;;;48.03;;
39728;SDS011;25402;42.004;23.088;2022-12-29T06:27:38;94.80;;;46.85;;
39728;SDS011;25402;42.004;23.088;2022-12-29T06:30:06;93.88;;;44.40;;
39728;SDS011;25402;42.004;23.088;2022-12-29T06:32:34;95.32;;;46.00;;
39728;SDS011;25402;42.004;23.088;2022-12-29T06:35:00;95.85;;;44.88;;
39728;SDS011;25402;42.004;23.088;2022-12-29T06:37:27;94.95;;;45.22;;
39728;SDS011;25402;42.004;23.088;2022-12-29T06:39:54;92.15;;;45.65;;
39728;SDS011;25402;42.004;23.088;2022-12-29T06:42:21;88.75;;;44.03;;
39728;SDS011;25402;42.004;23.088;2022-12-29T06:44:47;92.43;;;43.15;;
39728;SDS011;25402;42.004;23.088;2022-12-29T06:47:15;84.25;;;41.88;;
39728;SDS011;25402;42.004;23.088;2022-12-29T06:49:42;86.53;;;41.70;;
39728;SDS011;25402;42.004;23.088;2022-12-29T06:52:08;79.03;;;41.00;;
39728;SDS011;25402;42.004;23.088;2022-12-29T06:54:35;81.43;;;41.08;;
39728;SDS011;25402;42.004;23.088;2022-12-29T06:57:01;84.22;;;41.35;;
39728;SDS011;25402;42.004;23.088;2022-12-29T06:59:28;90.32;;;39.95;;
39728;SDS011;25402;42.004;23.088;2022-12-29T07:01:54;78.75;;;39.20;;
39728;SDS011;25402;42.004;23.088;2022-12-29T07:04:22;82.22;;;39.95;;
39728;SDS011;25402;42.004;23.088;2022-12-29T07:06:49;86.70;;;40.92;;
39728;SDS011;25402;42.004;23.088;2022-12-29T07:09:16;90.40;;;39.90;;
39728;SDS011;25402;42.004;23.088;2022-12-29T07:11:42;90.00;;;40.97;;
39728;SDS011;25402;42.004;23.088;2022-12-29T07:14:09;86.45;;;39.42;;
39728;SDS011;25402;42.004;23.088;2022-12-29T07:16:36;86.45;;;38.83;;
39728;SDS011;25402;42.004;23.088;2022-12-29T07:19:03;84.32;;;41.58;;
39728;SDS011;25402;42.004;23.088;2022-12-29T07:21:31;90.20;;;46.30;;
39728;SDS011;25402;42.004;23.088;2022-12-29T07:23:58;97.65;;;46.55;;
39728;SDS011;25402;42.004;23.088;2022-12-29T07:26:24;104.40;;;47.75;;
39728;SDS011;25402;42.004;23.088;2022-12-29T07:28:51;91.32;;;44.45;;
39728;SDS011;25402;42.004;23.088;2022-12-29T07:31:18;86.10;;;40.55;;
39728;SDS011;25402;42.004;23.088;2022-12-29T07:33:45;78.85;;;38.63;;
39728;SDS011;25402;42.004;23.088;2022-12-29T07:36:12;75.50;;;35.30;;
39728;SDS011;25402;42.004;23.088;2022-12-29T07:38:41;76.60;;;34.47;;
39728;SDS011;25402;42.004;23.088;2022-12-29T07:41:08;67.40;;;31.98;;
39728;SDS011;25402;42.004;23.088;2022-12-29T07:43:34;78.82;;;33.83;;
39728;SDS011;25402;42.004;23.088;2022-12-29T07:46:01;76.07;;;34.58;;
39728;SDS011;25402;42.004;23.088;2022-12-29T07:48:27;72.68;;;34.25;;
39728;SDS011;25402;42.004;23.088;2022-12-29T07:50:54;65.53;;;34.47;;
39728;SDS011;25402;42.004;23.088;2022-12-29T07:53:21;79.22;;;34.53;;
39728;SDS011;25402;42.004;23.088;2022-12-29T07:55:48;70.45;;;34.88;;
39728;SDS011;25402;42.004;23.088;2022-12-29T07:58:15;64.50;;;31.88;;
39728;SDS011;25402;42.004;23.088;2022-12-29T08:00:41;59.10;;;31.27;;
39728;SDS011;25402;42.004;23.088;2022-12-29T08:03:08;65.88;;;33.38;;
39728;SDS011;25402;42.004;23.088;2022-12-29T08:05:34;73.18;;;33.70;;
39728;SDS011;25402;42.004;23.088;2022-12-29T08:08:01;69.00;;;33.05;;
39728;SDS011;25402;42.004;23.088;2022-12-29T08:10:28;72.70;;;33.20;;
39728;SDS011;25402;42.004;23.088;2022-12-29T08:12:56;62.58;;;33.10;;
39728;SDS011;25402;42.004;23.088;2022-12-29T08:15:22;62.50;;;32.10;;
39728;SDS011;25402;42.004;23.088;2022-12-29T08:17:49;60.03;;;31.00;;
39728;SDS011;25402;42.004;23.088;2022-12-29T08:20:15;75.10;;;33.67;;
39728;SDS011;25402;42.004;23.088;2022-12-29T08:22:42;72.43;;;30.75;;
39728;SDS011;25402;42.004;23.088;2022-12-29T08:25:09;67.88;;;31.60;;
39728;SDS011;25402;42.004;23.088;2022-12-29T08:27:35;71.93;;;35.50;;
39728;SDS011;25402;42.004;23.088;2022-12-29T08:30:04;71.82;;;30.33;;
39728;SDS011;25402;42.004;23.088;2022-12-29T08:32:31;74.32;;;31.48;;
39728;SDS011;25402;42.004;23.088;2022-12-29T08:34:58;64.75;;;31.00;;
39728;SDS011;25402;42.004;23.088;2022-12-29T08:37:25;63.85;;;30.00;;
39728;SDS011;25402;42.004;23.088;2022-12-29T08:39:52;63.70;;;31.45;;
39728;SDS011;25402;42.004;23.088;2022-12-29T08:42:19;63.85;;;32.20;;
39728;SDS011;25402;42.004;23.088;2022-12-29T08:44:45;64.25;;;31.75;;
39728;SDS011;25402;42.004;23.088;2022-12-29T08:47:13;67.25;;;32.08;;
39728;SDS011;25402;42.004;23.088;2022-12-29T08:49:40;61.67;;;31.42;;
39728;SDS011;25402;42.004;23.088;2022-12-29T08:52:07;63.65;;;30.70;;
39728;SDS011;25402;42.004;23.088;2022-12-29T08:54:33;52.42;;;29.50;;
39728;SDS011;25402;42.004;23.088;2022-12-29T08:57:00;58.42;;;29.58;;
39728;SDS011;25402;42.004;23.088;2022-12-29T08:59:26;54.38;;;27.67;;
39728;SDS011;25402;42.004;23.088;2022-12-29T09:01:53;52.42;;;28.42;;
39728;SDS011;25402;42.004;23.088;2022-12-29T09:04:21;59.13;;;29.52;;
39728;SDS011;25402;42.004;23.088;2022-12-29T09:06:49;60.90;;;30.30;;
39728;SDS011;25402;42.004;23.088;2022-12-29T09:09:16;57.78;;;28.67;;
39728;SDS011;25402;42.004;23.088;2022-12-29T09:11:43;52.95;;;29.55;;
39728;SDS011;25402;42.004;23.088;2022-12-29T09:14:09;60.40;;;30.75;;
39728;SDS011;25402;42.004;23.088;2022-12-29T09:16:36;69.75;;;30.85;;
39728;SDS011;25402;42.004;23.088;2022-12-29T09:19:03;60.00;;;30.02;;
39728;SDS011;25402;42.004;23.088;2022-12-29T09:21:31;60.80;;;32.47;;
39728;SDS011;25402;42.004;23.088;2022-12-29T09:23:57;59.00;;;31.65;;
39728;SDS011;25402;42.004;23.088;2022-12-29T09:26:24;64.75;;;31.73;;
39728;SDS011;25402;42.004;23.088;2022-12-29T09:28:50;63.53;;;32.40;;
39728;SDS011;25402;42.004;23.088;2022-12-29T09:31:17;74.53;;;33.35;;
39728;SDS011;25402;42.004;23.088;2022-12-29T09:33:43;56.65;;;31.65;;
39728;SDS011;25402;42.004;23.088;2022-12-29T09:36:10;65.15;;;32.83;;
39728;SDS011;25402;42.004;23.088;2022-12-29T09:38:38;62.45;;;33.72;;
39728;SDS011;25402;42.004;23.088;2022-12-29T09:41:05;60.70;;;33.90;;
39728;SDS011;25402;42.004;23.088;2022-12-29T09:43:40;62.35;;;32.53;;
39728;SDS011;25402;42.004;23.088;2022-12-29T09:46:12;55.60;;;31.25;;
39728;SDS011;25402;42.004;23.088;2022-12-29T09:48:44;64.47;;;32.33;;
39728;SDS011;25402;42.004;23.088;2022-12-29T09:51:13;55.72;;;30.88;;
39728;SDS011;25402;42.004;23.088;2022-12-29T09:53:43;60.88;;;32.42;;
39728;SDS011;25402;42.004;23.088;2022-12-29T09:56:11;59.67;;;31.58;;
39728;SDS011;25402;42.004;23.088;2022-12-29T09:58:41;60.92;;;31.77;;
39728;SDS011;25402;42.004;23.088;2022-12-29T10:01:13;66.30;;;32.92;;
39728;SDS011;25402;42.004;23.088;2022-12-29T10:03:42;63.78;;;32.17;;
39728;SDS011;25402;42.004;23.088;2022-12-29T10:06:12;62.70;;;33.83;;
39728;SDS011;25402;42.004;23.088;2022-12-29T10:08:41;71.65;;;33.45;;
39728;SDS011;25402;42.004;23.088;2022-12-29T10:11:12;64.50;;;33.63;;
39728;SDS011;25402;42.004;23.088;2022-12-29T10:13:43;65.50;;;33.37;;
39728;SDS011;25402;42.004;23.088;2022-12-29T10:16:17;63.58;;;32.10;;
39728;SDS011;25402;42.004;23.088;2022-12-29T10:18:48;73.70;;;33.65;;
39728;SDS011;25402;42.004;23.088;2022-12-29T10:21:22;68.07;;;33.22;;
39728;SDS011;25402;42.004;23.088;2022-12-29T10:23:53;74.75;;;34.67;;
39728;SDS011;25402;42.004;23.088;2022-12-29T10:26:21;67.03;;;34.03;;
39728;SDS011;25402;42.004;23.088;2022-12-29T10:28:49;72.95;;;34.35;;
39728;SDS011;25402;42.004;23.088;2022-12-29T10:31:18;75.53;;;35.38;;
39728;SDS011;25402;42.004;23.088;2022-12-29T10:33:46;74.15;;;35.85;;
39728;SDS011;25402;42.004;23.088;2022-12-29T10:36:16;74.93;;;34.47;;
39728;SDS011;25402;42.004;23.088;2022-12-29T10:38:45;61.78;;;33.25;;
39728;SDS011;25402;42.004;23.088;2022-12-29T10:41:17;61.70;;;32.85;;
39728;SDS011;25402;42.004;23.088;2022-12-29T10:43:47;74.78;;;31.30;;
39728;SDS011;25402;42.004;23.088;2022-12-29T10:46:16;63.53;;;30.95;;
39728;SDS011;25402;42.004;23.088;2022-12-29T10:48:43;62.05;;;31.85;;
39728;SDS011;25402;42.004;23.088;2022-12-29T10:51:15;63.83;;;30.73;;
39728;SDS011;25402;42.004;23.088;2022-12-29T10:53:45;62.00;;;31.83;;
39728;SDS011;25402;42.004;23.088;2022-12-29T10:56:14;58.95;;;30.73;;
39728;SDS011;25402;42.004;23.088;2022-12-29T10:58:41;54.92;;;29.75;;
39728;SDS011;25402;42.004;23.088;2022-12-29T11:01:10;62.60;;;30.92;;
39728;SDS011;25402;42.004;23.088;2022-12-29T11:03:44;47.70;;;27.75;;
39728;SDS011;25402;42.004;23.088;2022-12-29T11:06:15;51.42;;;26.70;;
39728;SDS011;25402;42.004;23.088;2022-12-29T11:08:46;49.42;;;26.63;;
39728;SDS011;25402;42.004;23.088;2022-12-29T11:11:21;50.17;;;26.67;;
39728;SDS011;25402;42.004;23.088;2022-12-29T11:13:49;45.20;;;22.70;;
39728;SDS011;25402;42.004;23.088;2022-12-29T11:16:21;28.00;;;15.52;;
39728;SDS011;25402;42.004;23.088;2022-12-29T11:18:52;21.67;;;10.88;;
39728;SDS011;25402;42.004;23.088;2022-12-29T11:21:25;21.65;;;11.00;;
39728;SDS011;25402;42.004;23.088;2022-12-29T11:23:54;17.15;;;10.93;;
39728;SDS011;25402;42.004;23.088;2022-12-29T11:26:22;15.23;;;10.13;;
39728;SDS011;25402;42.004;23.088;2022-12-29T11:29:03;16.95;;;10.10;;
39728;SDS011;25402;42.004;23.088;2022-12-29T11:31:33;16.40;;;9.70;;
39728;SDS011;25402;42.004;23.088;2022-12-29T11:34:06;20.48;;;9.43;;
39728;SDS011;25402;42.004;23.088;2022-12-29T11:36:32;14.52;;;8.65;;
39728;SDS011;25402;42.004;23.088;2022-12-29T11:39:00;14.63;;;8.45;;
39728;SDS011;25402;42.004;23.088;2022-12-29T11:41:27;14.57;;;8.43;;
39728;SDS011;25402;42.004;23.088;2022-12-29T11:43:55;19.50;;;9.30;;
39728;SDS011;25402;42.004;23.088;2022-12-29T11:46:22;15.90;;;8.93;;
39728;SDS011;25402;42.004;23.088;2022-12-29T11:48:51;13.90;;;8.70;;
39728;SDS011;25402;42.004;23.088;2022-12-29T11:51:22;14.82;;;9.63;;
39728;SDS011;25402;42.004;23.088;2022-12-29T11:53:50;20.08;;;10.18;;
39728;SDS011;25402;42.004;23.088;2022-12-29T11:56:20;15.13;;;8.88;;
39728;SDS011;25402;42.004;23.088;2022-12-29T11:58:48;18.40;;;9.85;;
39728;SDS011;25402;42.004;23.088;2022-12-29T12:01:16;17.00;;;8.65;;
39728;SDS011;25402;42.004;23.088;2022-12-29T12:03:45;14.35;;;9.07;;
39728;SDS011;25402;42.004;23.088;2022-12-29T12:06:15;15.82;;;8.98;;
39728;SDS011;25402;42.004;23.088;2022-12-29T12:08:43;12.95;;;7.70;;
39728;SDS011;25402;42.004;23.088;2022-12-29T12:11:12;17.55;;;8.25;;
39728;SDS011;25402;42.004;23.088;2022-12-29T12:13:41;13.15;;;8.73;;
39728;SDS011;25402;42.004;23.088;2022-12-29T12:16:11;16.27;;;7.95;;
39728;SDS011;25402;42.004;23.088;2022-12-29T12:18:40;13.00;;;8.57;;
39728;SDS011;25402;42.004;23.088;2022-12-29T12:21:09;17.15;;;8.43;;
39728;SDS011;25402;42.004;23.088;2022-12-29T12:23:43;14.25;;;8.23;;
39728;SDS011;25402;42.004;23.088;2022-12-29T12:26:11;16.38;;;9.07;;
39728;SDS011;25402;42.004;23.088;2022-12-29T12:28:43;16.13;;;8.82;;
39728;SDS011;25402;42.004;23.088;2022-12-29T12:31:15;16.25;;;8.60;;
39728;SDS011;25402;42.004;23.088;2022-12-29T12:33:44;16.02;;;8.63;;
39728;SDS011;25402;42.004;23.088;2022-12-29T12:36:19;15.15;;;9.43;;
39728;SDS011;25402;42.004;23.088;2022-12-29T12:38:53;22.98;;;8.93;;
39728;SDS011;25402;42.004;23.088;2022-12-29T12:41:23;20.52;;;10.10;;
39728;SDS011;25402;42.004;23.088;2022-12-29T12:43:54;21.77;;;9.68;;
39728;SDS011;25402;42.004;23.088;2022-12-29T12:46:28;21.85;;;10.27;;
39728;SDS011;25402;42.004;23.088;2022-12-29T12:49:11;17.90;;;10.10;;
39728;SDS011;25402;42.004;23.088;2022-12-29T12:51:45;15.60;;;9.32;;
39728;SDS011;25402;42.004;23.088;2022-12-29T12:54:21;18.17;;;9.57;;
39728;SDS011;25402;42.004;23.088;2022-12-29T12:56:55;19.10;;;9.30;;
39728;SDS011;25402;42.004;23.088;2022-12-29T12:59:29;24.83;;;9.53;;
39728;SDS011;25402;42.004;23.088;2022-12-29T13:01:58;16.80;;;8.63;;
39728;SDS011;25402;42.004;23.088;2022-12-29T13:07:17;20.35;;;9.68;;
39728;SDS011;25402;42.004;23.088;2022-12-29T13:09:58;17.02;;;9.95;;
39728;SDS011;25402;42.004;23.088;2022-12-29T13:12:30;15.15;;;9.30;;
39728;SDS011;25402;42.004;23.088;2022-12-29T13:15:03;15.30;;;9.27;;
39728;SDS011;25402;42.004;23.088;2022-12-29T13:17:32;21.95;;;9.57;;
39728;SDS011;25402;42.004;23.088;2022-12-29T13:20:04;21.08;;;9.90;;
39728;SDS011;25402;42.004;23.088;2022-12-29T13:22:36;22.40;;;9.80;;
39728;SDS011;25402;42.004;23.088;2022-12-29T13:25:13;17.00;;;9.02;;
39728;SDS011;25402;42.004;23.088;2022-12-29T13:27:46;14.77;;;8.88;;
39728;SDS011;25402;42.004;23.088;2022-12-29T13:30:16;17.30;;;8.73;;
39728;SDS011;25402;42.004;23.088;2022-12-29T13:32:48;13.80;;;8.60;;
39728;SDS011;25402;42.004;23.088;2022-12-29T13:35:21;19.35;;;8.20;;
39728;SDS011;25402;42.004;23.088;2022-12-29T13:37:51;16.83;;;8.35;;
39728;SDS011;25402;42.004;23.088;2022-12-29T13:40:21;15.75;;;8.50;;
39728;SDS011;25402;42.004;23.088;2022-12-29T13:42:49;14.88;;;8.35;;
39728;SDS011;25402;42.004;23.088;2022-12-29T13:45:17;15.70;;;8.48;;
39728;SDS011;25402;42.004;23.088;2022-12-29T13:47:46;15.95;;;8.05;;
39728;SDS011;25402;42.004;23.088;2022-12-29T13:50:15;15.20;;;8.52;;
39728;SDS011;25402;42.004;23.088;2022-12-29T13:52:43;15.30;;;8.32;;
39728;SDS011;25402;42.004;23.088;2022-12-29T13:55:18;15.48;;;8.55;;
39728;SDS011;25402;42.004;23.088;2022-12-29T13:57:49;14.38;;;8.70;;
39728;SDS011;25402;42.004;23.088;2022-12-29T14:00:18;16.05;;;8.77;;
39728;SDS011;25402;42.004;23.088;2022-12-29T14:02:49;16.75;;;8.75;;
39728;SDS011;25402;42.004;23.088;2022-12-29T14:05:27;20.70;;;10.30;;
39728;SDS011;25402;42.004;23.088;2022-12-29T14:07:56;21.88;;;10.77;;
39728;SDS011;25402;42.004;23.088;2022-12-29T14:10:26;19.27;;;10.50;;
39728;SDS011;25402;42.004;23.088;2022-12-29T14:12:56;18.02;;;10.00;;
39728;SDS011;25402;42.004;23.088;2022-12-29T14:15:26;14.90;;;8.23;;
39728;SDS011;25402;42.004;23.088;2022-12-29T14:18:02;20.13;;;10.90;;
39728;SDS011;25402;42.004;23.088;2022-12-29T14:20:30;18.27;;;10.18;;
39728;SDS011;25402;42.004;23.088;2022-12-29T14:22:58;17.38;;;10.43;;
39728;SDS011;25402;42.004;23.088;2022-12-29T14:28:24;23.05;;;10.35;;
39728;SDS011;25402;42.004;23.088;2022-12-29T14:30:51;21.40;;;10.07;;
39728;SDS011;25402;42.004;23.088;2022-12-29T14:33:18;18.08;;;10.60;;
39728;SDS011;25402;42.004;23.088;2022-12-29T14:35:47;21.40;;;10.63;;
39728;SDS011;25402;42.004;23.088;2022-12-29T14:38:24;20.77;;;10.70;;